Bear Valley Ski Patrol Weather




            Date and Time  Surv  Temp  Temp  Surv  Precip   Total Inter Total  Batt Koala Koala Koala Koala Koala Koala Bear T Bear T  Bear  Bear  Bear
                           Temp 24 hr 24 hr    RH    Inch   24 hr  Snow  Snow  volt  Temp    RH    WS    WD    WS    WS   Temp     RH    WS    WD    WS
                          Deg F   Min   Max     %    Hour  Precip Stake Stake  Surv Deg F     %   mph  quad   Max 24Max  Deg F      %   mph  quad   Max
-------------------------------------------------------------------------------------------------------------------------------------------------------
    "2022-05-24 08:00:00"    53                23    0.00             0    23  13.6    51    24     4     W     9           52     26     5   NNW     9
    "2022-05-24 09:00:00"    56                23    0.00             0    23  13.6    52    26     4     W     8           54     29     6     N     9
    "2022-05-24 10:00:00"    57                19    0.00             0    23  13.6    54    23     3     W     9           55     28     4     N     8
    "2022-05-24 11:00:00"    59                22    0.00             0    24  13.5    57    19     2     W     8           57     23     2   NNE     8
    "2022-05-24 12:00:00"    62                22    0.00             0    23  13.5    59    22     2   WNW     7           59     28     2     N     8
    "2022-05-24 13:00:00"    63                22    0.00             0    23  13.4    60    27     2     W     9           59     32     3     N    10
    "2022-05-24 14:00:00"    65                24    0.00             0    22  13.4    61    25     3     W    10           60     32     4     N    12
    "2022-05-24 15:00:00"    65                26    0.00             0    22  13.3    63    28     4     W    13           61     34     5     N    11
    "2022-05-24 16:00:00"    63                31    0.00             0    22  13.3    62    32     3   WSW    15           62     38     4    NW    11
    "2022-05-24 17:00:00"    63                34    0.00             0    22  13.3    63    32     2   WSW    10           61     40     3    NW     9
    "2022-05-24 18:00:00"    61                34    0.00             0    22  13.2    63    32     2   WSW    11           60     40     4    NW    10
    "2022-05-24 19:00:00"    59                39    0.00             0    22  13.3    60    35     3     W    11           59     44     4   NNW     8
    "2022-05-24 20:00:00"    54                47    0.00             0    22  13.3    57    39     4     W     9           57     44     6   NNW     9
    "2022-05-24 21:00:00"    53                43    0.00             0    22  13.3    57    33     5   NNW    16           58     35     7   NNE    19
    "2022-05-24 22:00:00"    55                33    0.00             0    22  13.3    55    29     8   ENE    18           57     33    12   ENE    18
    "2022-05-24 23:00:00"    53                33    0.00             0    22  13.3    55    28     7     N    27           56     32     9   NNE    24
    "2022-05-25 00:00:00"    55                27    0.00             0    23  13.4    55    27     9   NNE    25           56     30     7   NNE    17
    "2022-05-25 01:00:00"    52                31    0.00             0    23  13.4    54    28     8     N    22           55     31     8   NNE    14
    "2022-05-25 02:00:00"    52                33    0.00             0    23  13.4    54    27     9     N    23           55     32     8   NNE    15
    "2022-05-25 03:00:00"    51                34    0.00             0    23  13.4    54    27     8   NNE    17           55     31     3   NNE     8
    "2022-05-25 04:00:00"    51                34    0.00             0    22  13.5    54    27     8    NE    17           55     32     2    NE     6
    "2022-05-25 05:00:00"    51                34    0.00             0    23  13.5    53    28     8    NE    18           55     32     1   NNE     8
    "2022-05-25 06:00:00"    50                37    0.00             0    22  13.5    54    28     4     N    11           56     31     0   NNW     4
    "2022-05-25 07:00:00"    53    50    65    40    0.00    0.00     0    23  13.5    55    28     2   WNW     4    27     57     30     0    NW     4
    "2022-05-25 08:00:00"    57                34    0.00             0    22  13.5    57    27     2   SSW     7           59     33     0    SW     3
    "2022-05-25 09:00:00"    62                29    0.00             0    22  13.5    59    28     4     S     8           60     35     2   SSE     5
    "2022-05-25 10:00:00"    62                26    0.00             0    21  13.5    61    28     1   SSE     7           61     33     2   ESE     5
    "2022-05-25 11:00:00"    63                30    0.00             0    21  13.4    61    31     1     W     7           61     39     3    NE     8
    "2022-05-25 12:00:00"    66                33    0.00             0    20  13.4    65    28     3     W    12           62     42     3   NNE     8
    "2022-05-25 13:00:00"    69                34    0.00             0    19  13.3    68    32     3    SE    14           64     43     3    SW     8
    "2022-05-25 14:00:00"    70                34    0.00             0    19  13.3    67    29     4   SSE    15           64     43     4    SW    11
    "2022-05-25 15:00:00"    67                34    0.00             0    19  13.2    67    34     3     S    15           64     45     3    SW     9
    "2022-05-25 16:00:00"    66                36    0.00             0    19  13.2    67    34     4     S    20           64     44     3    SW     9
    "2022-05-25 17:00:00"    65                39    0.00             0    19  13.2    67    33     5     S    17           63     46     3    SW    12
    "2022-05-25 18:00:00"    63                44    0.00             0    18  13.2    65    37     3     S    14           62     49     3   WSW    10
    "2022-05-25 19:00:00"    60                48    0.00             0    18  13.2    62    40     2   WSW     8           60     52     3   WSW     7
    "2022-05-25 20:00:00"    56                51    0.00             0    18  13.2    58    47     3   WSW     8           57     55     3   WSW     7
    "2022-05-25 21:00:00"    54                52    0.00             0    18  13.2    56    47     5    SW    10           55     54     5    SW     8
    "2022-05-25 22:00:00"    52                56    0.00             0    18  13.3    55    49     6     S    11           55     54     5     S     9
    "2022-05-25 23:00:00"    51                61    0.00             0    19  13.3    54    52     6   SSE    10           54     55     6     S     9
    "2022-05-26 00:00:00"    50                58    0.00             0    18  13.3    53    50     8   SSE    13           54     52     7     S    11
    "2022-05-26 01:00:00"    52                51    0.00             0    19  13.4    53    49    10   SSE    16           54     52     8   SSE    12
    "2022-05-26 02:00:00"    51                54    0.00             0    18  13.4    52    51    10   SSE    16           54     52     8   SSE    14
    "2022-05-26 03:00:00"    50                57    0.00             0    19  13.4    51    52     7   SSE    12           53     55     7   SSE    11
    "2022-05-26 04:00:00"    49                54    0.00             0    19  13.5    51    45     6   SSE    11           53     47     7     S    10
    "2022-05-26 05:00:00"    48                54    0.00             0    18  13.5    51    43     7   SSE    12           53     46     8   SSE    11
    "2022-05-26 06:00:00"    50                43    0.00             0    19  13.5    50    41     8   SSE    11           52     43     6   SSE    11
    "2022-05-26 07:00:00"    51    48    70    49    0.00    0.00     0    19  13.5    51    42     7    SE    11    20     53     44     5   SSE     9
    "2022-05-26 08:00:00"    57                37    0.00             0    18  13.5    54    39     8   SSE    16           55     43     3   SSE     9
    "2022-05-26 09:00:00"    60                36    0.00             0    18  13.5    57    39     9   SSE    17           57     45     3     S    13
    "2022-05-26 10:00:00"    60                31    0.00             0    18  13.5    60    30     8     S    20           58     38     4   SSW    12
    "2022-05-26 11:00:00"    61                31    0.00             0    18  13.5    61    32     7     S    20           59     39     4   SSW    15
    "2022-05-26 12:00:00"    64                28    0.00             0    17  13.4    62    30     7     S    22           60     36     5    SW    13
    "2022-05-26 13:00:00"    66                25    0.00             0    17  13.4    62    28     7     S    25           60     37     6    SW    17
    "2022-05-26 14:00:00"    65                26    0.00             0    17  13.3    63    26     7     S    28           61     35     5    SW    13